sensor_id;sensor_type;location;lat;lon;timestamp;P1;durP1;ratioP1;P2;durP2;ratioP2
72065;SDS011;59939;52.516;13.420;2022-11-21T00:02:38;40.87;;;16.77;;
72065;SDS011;59939;52.516;13.420;2022-11-21T00:05:46;49.20;;;19.33;;
72065;SDS011;59939;52.516;13.420;2022-11-21T00:08:55;31.57;;;12.27;;
72065;SDS011;59939;52.516;13.420;2022-11-21T00:11:59;32.80;;;11.90;;
72065;SDS011;59939;52.516;13.420;2022-11-21T00:15:04;36.17;;;14.47;;
72065;SDS011;59939;52.516;13.420;2022-11-21T00:18:10;63.80;;;20.00;;
72065;SDS011;59939;52.516;13.420;2022-11-21T00:21:16;42.73;;;16.47;;
72065;SDS011;59939;52.516;13.420;2022-11-21T00:24:21;41.63;;;18.53;;
72065;SDS011;59939;52.516;13.420;2022-11-21T00:27:26;40.63;;;17.60;;
72065;SDS011;59939;52.516;13.420;2022-11-21T00:30:34;46.67;;;17.33;;
72065;SDS011;59939;52.516;13.420;2022-11-21T00:33:38;39.73;;;19.43;;
72065;SDS011;59939;52.516;13.420;2022-11-21T00:36:41;41.03;;;18.43;;
72065;SDS011;59939;52.516;13.420;2022-11-21T00:39:48;37.50;;;16.80;;
72065;SDS011;59939;52.516;13.420;2022-11-21T00:42:52;30.37;;;12.50;;
72065;SDS011;59939;52.516;13.420;2022-11-21T00:45:56;39.67;;;18.67;;
72065;SDS011;59939;52.516;13.420;2022-11-21T00:49:04;32.67;;;15.37;;
72065;SDS011;59939;52.516;13.420;2022-11-21T00:52:07;38.47;;;18.37;;
72065;SDS011;59939;52.516;13.420;2022-11-21T00:55:12;38.67;;;19.30;;
72065;SDS011;59939;52.516;13.420;2022-11-21T00:58:17;45.77;;;18.47;;
72065;SDS011;59939;52.516;13.420;2022-11-21T01:01:24;43.63;;;18.53;;
72065;SDS011;59939;52.516;13.420;2022-11-21T01:04:40;37.10;;;19.00;;
72065;SDS011;59939;52.516;13.420;2022-11-21T01:07:44;37.17;;;19.13;;
72065;SDS011;59939;52.516;13.420;2022-11-21T01:10:48;40.80;;;21.97;;
72065;SDS011;59939;52.516;13.420;2022-11-21T01:13:52;40.27;;;21.47;;
72065;SDS011;59939;52.516;13.420;2022-11-21T01:16:59;43.20;;;24.83;;
72065;SDS011;59939;52.516;13.420;2022-11-21T01:20:03;41.90;;;23.37;;
72065;SDS011;59939;52.516;13.420;2022-11-21T01:23:15;38.97;;;25.53;;
72065;SDS011;59939;52.516;13.420;2022-11-21T01:26:20;42.57;;;24.93;;
72065;SDS011;59939;52.516;13.420;2022-11-21T01:29:28;46.27;;;25.67;;
72065;SDS011;59939;52.516;13.420;2022-11-21T01:32:41;43.53;;;27.23;;
72065;SDS011;59939;52.516;13.420;2022-11-21T01:35:47;46.33;;;26.83;;
72065;SDS011;59939;52.516;13.420;2022-11-21T01:38:53;43.10;;;25.13;;
72065;SDS011;59939;52.516;13.420;2022-11-21T01:41:58;41.37;;;25.47;;
72065;SDS011;59939;52.516;13.420;2022-11-21T01:45:45;46.47;;;26.37;;
72065;SDS011;59939;52.516;13.420;2022-11-21T01:49:07;40.97;;;26.70;;
72065;SDS011;59939;52.516;13.420;2022-11-21T01:52:23;44.63;;;26.13;;
72065;SDS011;59939;52.516;13.420;2022-11-21T01:59:12;42.17;;;26.83;;
72065;SDS011;59939;52.516;13.420;2022-11-21T02:02:29;45.60;;;24.63;;
72065;SDS011;59939;52.516;13.420;2022-11-21T02:05:38;50.50;;;26.70;;
72065;SDS011;59939;52.516;13.420;2022-11-21T02:08:45;47.23;;;28.70;;
72065;SDS011;59939;52.516;13.420;2022-11-21T02:11:50;53.90;;;32.53;;
72065;SDS011;59939;52.516;13.420;2022-11-21T02:14:57;46.63;;;28.43;;
72065;SDS011;59939;52.516;13.420;2022-11-21T02:18:07;53.87;;;29.70;;
72065;SDS011;59939;52.516;13.420;2022-11-21T02:24:38;39.53;;;27.03;;
72065;SDS011;59939;52.516;13.420;2022-11-21T02:27:49;48.07;;;29.70;;
72065;SDS011;59939;52.516;13.420;2022-11-21T02:31:00;56.57;;;30.13;;
72065;SDS011;59939;52.516;13.420;2022-11-21T02:34:06;54.83;;;29.93;;
72065;SDS011;59939;52.516;13.420;2022-11-21T02:37:10;49.93;;;28.20;;
72065;SDS011;59939;52.516;13.420;2022-11-21T02:40:21;43.33;;;27.43;;
72065;SDS011;59939;52.516;13.420;2022-11-21T02:43:35;47.30;;;26.83;;
72065;SDS011;59939;52.516;13.420;2022-11-21T02:46:51;50.50;;;28.13;;
72065;SDS011;59939;52.516;13.420;2022-11-21T02:49:57;47.57;;;25.63;;
72065;SDS011;59939;52.516;13.420;2022-11-21T02:53:10;45.17;;;26.70;;
72065;SDS011;59939;52.516;13.420;2022-11-21T02:56:16;48.83;;;27.70;;
72065;SDS011;59939;52.516;13.420;2022-11-21T02:59:20;38.60;;;26.33;;
72065;SDS011;59939;52.516;13.420;2022-11-21T03:02:24;47.37;;;27.93;;
72065;SDS011;59939;52.516;13.420;2022-11-21T03:05:27;53.77;;;27.93;;
72065;SDS011;59939;52.516;13.420;2022-11-21T03:08:32;43.93;;;29.17;;
72065;SDS011;59939;52.516;13.420;2022-11-21T03:11:37;40.37;;;26.50;;
72065;SDS011;59939;52.516;13.420;2022-11-21T03:14:41;40.83;;;24.97;;
72065;SDS011;59939;52.516;13.420;2022-11-21T03:17:47;43.33;;;26.23;;
72065;SDS011;59939;52.516;13.420;2022-11-21T03:20:51;81.77;;;32.73;;
72065;SDS011;59939;52.516;13.420;2022-11-21T03:23:56;44.53;;;25.47;;
72065;SDS011;59939;52.516;13.420;2022-11-21T03:27:09;50.07;;;26.47;;
72065;SDS011;59939;52.516;13.420;2022-11-21T03:30:21;44.00;;;25.43;;
72065;SDS011;59939;52.516;13.420;2022-11-21T03:33:26;44.23;;;26.80;;
72065;SDS011;59939;52.516;13.420;2022-11-21T03:40:03;45.63;;;25.83;;
72065;SDS011;59939;52.516;13.420;2022-11-21T03:43:08;40.73;;;25.27;;
72065;SDS011;59939;52.516;13.420;2022-11-21T03:46:14;53.03;;;28.17;;
72065;SDS011;59939;52.516;13.420;2022-11-21T03:49:22;51.67;;;24.87;;
72065;SDS011;59939;52.516;13.420;2022-11-21T03:52:26;42.07;;;23.67;;
72065;SDS011;59939;52.516;13.420;2022-11-21T03:55:38;78.57;;;29.67;;
72065;SDS011;59939;52.516;13.420;2022-11-21T03:58:44;53.50;;;26.37;;
72065;SDS011;59939;52.516;13.420;2022-11-21T04:01:48;49.03;;;26.13;;
72065;SDS011;59939;52.516;13.420;2022-11-21T04:04:52;42.23;;;23.93;;
72065;SDS011;59939;52.516;13.420;2022-11-21T04:07:56;60.47;;;29.00;;
72065;SDS011;59939;52.516;13.420;2022-11-21T04:11:07;49.97;;;27.97;;
72065;SDS011;59939;52.516;13.420;2022-11-21T04:14:11;50.97;;;28.30;;
72065;SDS011;59939;52.516;13.420;2022-11-21T04:17:15;51.63;;;29.97;;
72065;SDS011;59939;52.516;13.420;2022-11-21T04:20:19;60.97;;;30.63;;
72065;SDS011;59939;52.516;13.420;2022-11-21T04:23:26;53.10;;;29.83;;
72065;SDS011;59939;52.516;13.420;2022-11-21T04:26:32;52.10;;;28.70;;
72065;SDS011;59939;52.516;13.420;2022-11-21T04:29:36;45.80;;;26.60;;
72065;SDS011;59939;52.516;13.420;2022-11-21T04:32:41;54.57;;;29.80;;
72065;SDS011;59939;52.516;13.420;2022-11-21T04:35:46;53.60;;;27.30;;
72065;SDS011;59939;52.516;13.420;2022-11-21T04:38:52;56.13;;;33.53;;
72065;SDS011;59939;52.516;13.420;2022-11-21T04:41:56;50.40;;;29.67;;
72065;SDS011;59939;52.516;13.420;2022-11-21T04:45:08;52.43;;;31.00;;
72065;SDS011;59939;52.516;13.420;2022-11-21T04:48:13;60.17;;;34.13;;
72065;SDS011;59939;52.516;13.420;2022-11-21T04:51:17;51.43;;;28.83;;
72065;SDS011;59939;52.516;13.420;2022-11-21T04:54:24;49.33;;;29.03;;
72065;SDS011;59939;52.516;13.420;2022-11-21T04:57:31;47.43;;;27.60;;
72065;SDS011;59939;52.516;13.420;2022-11-21T05:00:37;53.83;;;30.70;;
72065;SDS011;59939;52.516;13.420;2022-11-21T05:03:52;55.10;;;29.47;;
72065;SDS011;59939;52.516;13.420;2022-11-21T05:06:56;68.97;;;32.83;;
72065;SDS011;59939;52.516;13.420;2022-11-21T05:10:14;58.77;;;30.13;;
72065;SDS011;59939;52.516;13.420;2022-11-21T05:13:18;58.00;;;30.60;;
72065;SDS011;59939;52.516;13.420;2022-11-21T05:16:32;67.53;;;32.03;;
72065;SDS011;59939;52.516;13.420;2022-11-21T05:19:38;61.67;;;30.57;;
72065;SDS011;59939;52.516;13.420;2022-11-21T05:22:42;67.00;;;31.80;;
72065;SDS011;59939;52.516;13.420;2022-11-21T05:25:48;64.70;;;30.87;;
72065;SDS011;59939;52.516;13.420;2022-11-21T05:28:52;81.53;;;34.43;;
72065;SDS011;59939;52.516;13.420;2022-11-21T05:31:56;76.23;;;34.87;;
72065;SDS011;59939;52.516;13.420;2022-11-21T05:35:00;56.43;;;32.50;;
72065;SDS011;59939;52.516;13.420;2022-11-21T05:38:12;79.87;;;33.90;;
72065;SDS011;59939;52.516;13.420;2022-11-21T05:41:19;69.67;;;32.50;;
72065;SDS011;59939;52.516;13.420;2022-11-21T05:44:23;70.37;;;33.23;;
72065;SDS011;59939;52.516;13.420;2022-11-21T05:47:30;51.40;;;27.93;;
72065;SDS011;59939;52.516;13.420;2022-11-21T05:50:45;67.00;;;31.43;;
72065;SDS011;59939;52.516;13.420;2022-11-21T05:53:50;70.43;;;29.97;;
72065;SDS011;59939;52.516;13.420;2022-11-21T05:56:54;65.43;;;29.70;;
72065;SDS011;59939;52.516;13.420;2022-11-21T06:00:06;66.73;;;31.83;;
72065;SDS011;59939;52.516;13.420;2022-11-21T06:03:10;65.47;;;30.53;;
72065;SDS011;59939;52.516;13.420;2022-11-21T06:06:30;68.00;;;30.30;;
72065;SDS011;59939;52.516;13.420;2022-11-21T06:09:34;60.70;;;30.10;;
72065;SDS011;59939;52.516;13.420;2022-11-21T06:12:38;54.07;;;28.67;;
72065;SDS011;59939;52.516;13.420;2022-11-21T06:15:41;52.13;;;30.93;;
72065;SDS011;59939;52.516;13.420;2022-11-21T06:18:46;86.83;;;34.27;;
72065;SDS011;59939;52.516;13.420;2022-11-21T06:21:53;65.83;;;33.43;;
72065;SDS011;59939;52.516;13.420;2022-11-21T06:24:57;58.80;;;29.37;;
72065;SDS011;59939;52.516;13.420;2022-11-21T06:28:01;76.40;;;32.10;;
72065;SDS011;59939;52.516;13.420;2022-11-21T06:34:18;111.83;;;35.63;;
72065;SDS011;59939;52.516;13.420;2022-11-21T06:37:22;65.57;;;29.10;;
72065;SDS011;59939;52.516;13.420;2022-11-21T06:40:26;57.70;;;28.53;;
72065;SDS011;59939;52.516;13.420;2022-11-21T06:43:30;59.10;;;27.37;;
72065;SDS011;59939;52.516;13.420;2022-11-21T06:46:34;86.43;;;31.80;;
72065;SDS011;59939;52.516;13.420;2022-11-21T06:49:38;56.17;;;29.40;;
72065;SDS011;59939;52.516;13.420;2022-11-21T06:52:42;71.93;;;30.20;;
72065;SDS011;59939;52.516;13.420;2022-11-21T06:55:48;64.80;;;30.17;;
72065;SDS011;59939;52.516;13.420;2022-11-21T06:58:52;57.90;;;30.13;;
72065;SDS011;59939;52.516;13.420;2022-11-21T07:01:57;57.80;;;29.63;;
72065;SDS011;59939;52.516;13.420;2022-11-21T07:05:01;119.40;;;36.80;;
72065;SDS011;59939;52.516;13.420;2022-11-21T07:08:04;68.47;;;30.20;;
72065;SDS011;59939;52.516;13.420;2022-11-21T07:11:12;52.90;;;28.43;;
72065;SDS011;59939;52.516;13.420;2022-11-21T07:14:34;60.37;;;28.57;;
72065;SDS011;59939;52.516;13.420;2022-11-21T07:17:38;68.50;;;29.17;;
72065;SDS011;59939;52.516;13.420;2022-11-21T07:20:43;78.67;;;35.83;;
72065;SDS011;59939;52.516;13.420;2022-11-21T07:23:48;60.23;;;32.37;;
72065;SDS011;59939;52.516;13.420;2022-11-21T07:26:55;61.10;;;29.83;;
72065;SDS011;59939;52.516;13.420;2022-11-21T07:30:07;62.73;;;29.90;;
72065;SDS011;59939;52.516;13.420;2022-11-21T07:33:12;75.27;;;32.07;;
72065;SDS011;59939;52.516;13.420;2022-11-21T07:36:18;74.20;;;31.73;;
72065;SDS011;59939;52.516;13.420;2022-11-21T07:39:22;69.63;;;30.53;;
72065;SDS011;59939;52.516;13.420;2022-11-21T07:42:26;60.33;;;31.50;;
72065;SDS011;59939;52.516;13.420;2022-11-21T07:45:31;81.10;;;32.10;;
72065;SDS011;59939;52.516;13.420;2022-11-21T07:48:38;77.27;;;32.00;;
72065;SDS011;59939;52.516;13.420;2022-11-21T07:51:50;72.37;;;31.93;;
72065;SDS011;59939;52.516;13.420;2022-11-21T07:54:54;60.77;;;30.60;;
72065;SDS011;59939;52.516;13.420;2022-11-21T07:58:09;99.13;;;36.20;;
72065;SDS011;59939;52.516;13.420;2022-11-21T08:01:15;81.67;;;34.83;;
72065;SDS011;59939;52.516;13.420;2022-11-21T08:04:18;76.27;;;34.47;;
72065;SDS011;59939;52.516;13.420;2022-11-21T08:07:22;73.50;;;35.00;;
72065;SDS011;59939;52.516;13.420;2022-11-21T08:10:27;80.50;;;35.93;;
72065;SDS011;59939;52.516;13.420;2022-11-21T08:13:30;76.23;;;35.93;;
72065;SDS011;59939;52.516;13.420;2022-11-21T08:16:34;92.73;;;36.70;;
72065;SDS011;59939;52.516;13.420;2022-11-21T08:19:38;68.00;;;31.67;;
72065;SDS011;59939;52.516;13.420;2022-11-21T08:22:42;70.63;;;36.47;;
72065;SDS011;59939;52.516;13.420;2022-11-21T08:25:46;83.07;;;40.20;;
72065;SDS011;59939;52.516;13.420;2022-11-21T08:28:50;82.27;;;33.90;;
72065;SDS011;59939;52.516;13.420;2022-11-21T08:31:57;77.07;;;35.80;;
72065;SDS011;59939;52.516;13.420;2022-11-21T08:35:00;78.43;;;32.93;;
72065;SDS011;59939;52.516;13.420;2022-11-21T08:38:04;98.43;;;34.17;;
72065;SDS011;59939;52.516;13.420;2022-11-21T08:41:10;71.20;;;29.43;;
72065;SDS011;59939;52.516;13.420;2022-11-21T08:44:33;66.10;;;25.10;;
72065;SDS011;59939;52.516;13.420;2022-11-21T08:47:37;84.90;;;33.53;;
72065;SDS011;59939;52.516;13.420;2022-11-21T08:50:41;67.30;;;23.70;;
72065;SDS011;59939;52.516;13.420;2022-11-21T08:53:45;59.87;;;25.23;;
72065;SDS011;59939;52.516;13.420;2022-11-21T08:56:49;59.03;;;29.37;;
72065;SDS011;59939;52.516;13.420;2022-11-21T08:59:53;82.30;;;31.97;;
72065;SDS011;59939;52.516;13.420;2022-11-21T09:02:57;82.47;;;34.30;;
72065;SDS011;59939;52.516;13.420;2022-11-21T09:06:01;54.67;;;17.50;;
72065;SDS011;59939;52.516;13.420;2022-11-21T09:09:05;76.07;;;25.27;;
72065;SDS011;59939;52.516;13.420;2022-11-21T09:12:09;86.13;;;26.57;;
72065;SDS011;59939;52.516;13.420;2022-11-21T09:15:12;74.53;;;26.00;;
72065;SDS011;59939;52.516;13.420;2022-11-21T09:18:35;83.50;;;29.50;;
72065;SDS011;59939;52.516;13.420;2022-11-21T09:21:39;63.67;;;25.03;;
72065;SDS011;59939;52.516;13.420;2022-11-21T09:24:43;73.07;;;25.83;;
72065;SDS011;59939;52.516;13.420;2022-11-21T09:27:47;67.50;;;26.97;;
72065;SDS011;59939;52.516;13.420;2022-11-21T09:30:51;62.70;;;28.93;;
72065;SDS011;59939;52.516;13.420;2022-11-21T09:33:55;74.97;;;31.60;;
72065;SDS011;59939;52.516;13.420;2022-11-21T09:36:59;69.40;;;24.90;;
72065;SDS011;59939;52.516;13.420;2022-11-21T09:40:03;57.93;;;18.90;;
72065;SDS011;59939;52.516;13.420;2022-11-21T09:46:52;39.10;;;17.77;;
72065;SDS011;59939;52.516;13.420;2022-11-21T09:50:04;56.17;;;20.73;;
72065;SDS011;59939;52.516;13.420;2022-11-21T09:53:16;81.90;;;27.73;;
72065;SDS011;59939;52.516;13.420;2022-11-21T09:56:23;77.90;;;27.80;;
72065;SDS011;59939;52.516;13.420;2022-11-21T09:59:33;77.77;;;26.73;;
72065;SDS011;59939;52.516;13.420;2022-11-21T10:02:39;51.83;;;24.43;;
72065;SDS011;59939;52.516;13.420;2022-11-21T10:05:47;73.53;;;25.53;;
72065;SDS011;59939;52.516;13.420;2022-11-21T10:09:17;103.47;;;30.63;;
72065;SDS011;59939;52.516;13.420;2022-11-21T10:16:23;69.27;;;25.50;;
72065;SDS011;59939;52.516;13.420;2022-11-21T10:19:53;49.40;;;18.23;;
72065;SDS011;59939;52.516;13.420;2022-11-21T10:30:19;40.00;;;17.43;;
72065;SDS011;59939;52.516;13.420;2022-11-21T10:33:29;62.23;;;25.73;;
72065;SDS011;59939;52.516;13.420;2022-11-21T10:36:35;93.40;;;27.27;;
72065;SDS011;59939;52.516;13.420;2022-11-21T10:39:45;87.27;;;29.67;;
72065;SDS011;59939;52.516;13.420;2022-11-21T10:47:00;84.43;;;26.77;;
72065;SDS011;59939;52.516;13.420;2022-11-21T10:53:15;73.70;;;27.03;;
72065;SDS011;59939;52.516;13.420;2022-11-21T10:56:43;75.30;;;23.80;;
72065;SDS011;59939;52.516;13.420;2022-11-21T10:59:58;81.53;;;25.67;;
72065;SDS011;59939;52.516;13.420;2022-11-21T11:03:05;59.23;;;23.33;;
72065;SDS011;59939;52.516;13.420;2022-11-21T11:06:26;99.00;;;26.77;;
72065;SDS011;59939;52.516;13.420;2022-11-21T11:09:32;76.90;;;23.30;;
72065;SDS011;59939;52.516;13.420;2022-11-21T11:12:37;64.60;;;22.90;;
72065;SDS011;59939;52.516;13.420;2022-11-21T11:16:17;73.17;;;23.30;;
72065;SDS011;59939;52.516;13.420;2022-11-21T11:19:25;79.87;;;25.40;;
72065;SDS011;59939;52.516;13.420;2022-11-21T11:22:35;72.93;;;24.10;;
72065;SDS011;59939;52.516;13.420;2022-11-21T11:25:39;75.83;;;23.80;;
72065;SDS011;59939;52.516;13.420;2022-11-21T11:28:47;58.27;;;19.80;;
72065;SDS011;59939;52.516;13.420;2022-11-21T11:31:55;74.27;;;23.77;;
72065;SDS011;59939;52.516;13.420;2022-11-21T11:35:05;58.47;;;18.57;;
72065;SDS011;59939;52.516;13.420;2022-11-21T11:38:24;40.70;;;16.40;;
72065;SDS011;59939;52.516;13.420;2022-11-21T11:41:37;86.23;;;23.27;;
72065;SDS011;59939;52.516;13.420;2022-11-21T11:45:40;52.33;;;18.27;;
72065;SDS011;59939;52.516;13.420;2022-11-21T11:49:30;65.67;;;20.27;;
72065;SDS011;59939;52.516;13.420;2022-11-21T11:53:17;61.43;;;20.57;;
72065;SDS011;59939;52.516;13.420;2022-11-21T11:56:33;58.63;;;19.70;;
72065;SDS011;59939;52.516;13.420;2022-11-21T11:59:43;38.43;;;13.60;;
72065;SDS011;59939;52.516;13.420;2022-11-21T12:03:04;56.30;;;17.80;;
72065;SDS011;59939;52.516;13.420;2022-11-21T12:06:20;115.23;;;24.77;;
72065;SDS011;59939;52.516;13.420;2022-11-21T12:09:36;64.00;;;20.63;;
72065;SDS011;59939;52.516;13.420;2022-11-21T12:12:48;39.63;;;11.17;;
72065;SDS011;59939;52.516;13.420;2022-11-21T12:15:58;64.47;;;18.87;;
72065;SDS011;59939;52.516;13.420;2022-11-21T12:19:13;56.23;;;19.60;;
72065;SDS011;59939;52.516;13.420;2022-11-21T12:22:19;60.03;;;20.70;;
72065;SDS011;59939;52.516;13.420;2022-11-21T12:25:30;60.77;;;19.03;;
72065;SDS011;59939;52.516;13.420;2022-11-21T12:28:43;59.20;;;16.50;;
72065;SDS011;59939;52.516;13.420;2022-11-21T12:36:16;69.40;;;18.07;;
72065;SDS011;59939;52.516;13.420;2022-11-21T12:43:23;30.70;;;10.83;;
72065;SDS011;59939;52.516;13.420;2022-11-21T12:50:22;46.23;;;15.20;;
72065;SDS011;59939;52.516;13.420;2022-11-21T12:57:37;45.33;;;13.77;;
72065;SDS011;59939;52.516;13.420;2022-11-21T13:00:54;54.03;;;16.20;;
72065;SDS011;59939;52.516;13.420;2022-11-21T13:04:10;59.60;;;14.57;;
72065;SDS011;59939;52.516;13.420;2022-11-21T13:07:19;30.17;;;15.10;;
72065;SDS011;59939;52.516;13.420;2022-11-21T13:10:25;26.40;;;13.87;;
72065;SDS011;59939;52.516;13.420;2022-11-21T13:13:30;27.97;;;12.97;;
72065;SDS011;59939;52.516;13.420;2022-11-21T13:16:38;26.23;;;13.93;;
72065;SDS011;59939;52.516;13.420;2022-11-21T13:20:04;25.30;;;12.07;;
72065;SDS011;59939;52.516;13.420;2022-11-21T13:30:03;29.33;;;14.57;;
72065;SDS011;59939;52.516;13.420;2022-11-21T13:33:10;37.10;;;15.83;;
72065;SDS011;59939;52.516;13.420;2022-11-21T13:36:36;23.40;;;11.10;;
72065;SDS011;59939;52.516;13.420;2022-11-21T13:39:41;24.53;;;11.60;;
72065;SDS011;59939;52.516;13.420;2022-11-21T14:07:30;26.80;;;13.63;;
72065;SDS011;59939;52.516;13.420;2022-11-21T14:10:39;31.50;;;16.07;;
72065;SDS011;59939;52.516;13.420;2022-11-21T14:13:46;31.17;;;15.17;;
72065;SDS011;59939;52.516;13.420;2022-11-21T14:20:47;26.60;;;13.40;;
72065;SDS011;59939;52.516;13.420;2022-11-21T14:23:55;32.30;;;15.67;;
72065;SDS011;59939;52.516;13.420;2022-11-21T14:27:15;30.50;;;17.00;;
72065;SDS011;59939;52.516;13.420;2022-11-21T14:30:32;32.37;;;17.00;;
72065;SDS011;59939;52.516;13.420;2022-11-21T14:33:38;32.00;;;17.20;;
72065;SDS011;59939;52.516;13.420;2022-11-21T14:36:50;31.60;;;16.23;;
72065;SDS011;59939;52.516;13.420;2022-11-21T14:39:53;37.37;;;19.70;;
72065;SDS011;59939;52.516;13.420;2022-11-21T14:42:59;34.43;;;18.37;;
72065;SDS011;59939;52.516;13.420;2022-11-21T14:46:03;36.90;;;19.23;;
72065;SDS011;59939;52.516;13.420;2022-11-21T14:52:18;30.00;;;15.30;;
72065;SDS011;59939;52.516;13.420;2022-11-21T14:55:29;37.67;;;21.50;;
72065;SDS011;59939;52.516;13.420;2022-11-21T14:58:35;36.37;;;21.57;;
72065;SDS011;59939;52.516;13.420;2022-11-21T15:01:38;39.27;;;22.50;;
72065;SDS011;59939;52.516;13.420;2022-11-21T15:04:45;33.60;;;18.50;;
72065;SDS011;59939;52.516;13.420;2022-11-21T15:07:50;38.80;;;23.13;;
72065;SDS011;59939;52.516;13.420;2022-11-21T15:11:00;35.03;;;21.23;;
72065;SDS011;59939;52.516;13.420;2022-11-21T15:14:19;35.50;;;21.30;;
72065;SDS011;59939;52.516;13.420;2022-11-21T15:17:36;43.63;;;21.10;;
72065;SDS011;59939;52.516;13.420;2022-11-21T15:20:45;32.90;;;20.27;;
72065;SDS011;59939;52.516;13.420;2022-11-21T15:23:53;35.63;;;20.50;;
72065;SDS011;59939;52.516;13.420;2022-11-21T15:30:31;33.77;;;17.97;;
72065;SDS011;59939;52.516;13.420;2022-11-21T15:37:22;35.03;;;20.50;;
72065;SDS011;59939;52.516;13.420;2022-11-21T15:40:35;41.13;;;24.90;;
72065;SDS011;59939;52.516;13.420;2022-11-21T15:43:48;39.23;;;21.97;;
72065;SDS011;59939;52.516;13.420;2022-11-21T15:47:06;32.50;;;20.80;;
72065;SDS011;59939;52.516;13.420;2022-11-21T15:50:14;34.83;;;20.13;;
72065;SDS011;59939;52.516;13.420;2022-11-21T15:53:19;35.13;;;19.10;;
72065;SDS011;59939;52.516;13.420;2022-11-21T15:56:24;37.00;;;19.83;;
72065;SDS011;59939;52.516;13.420;2022-11-21T15:59:30;41.87;;;25.17;;
72065;SDS011;59939;52.516;13.420;2022-11-21T16:02:36;40.90;;;23.80;;
72065;SDS011;59939;52.516;13.420;2022-11-21T16:05:47;34.43;;;21.10;;
72065;SDS011;59939;52.516;13.420;2022-11-21T16:08:52;37.40;;;22.40;;
72065;SDS011;59939;52.516;13.420;2022-11-21T16:11:56;41.07;;;21.73;;
72065;SDS011;59939;52.516;13.420;2022-11-21T16:15:00;41.80;;;22.13;;
72065;SDS011;59939;52.516;13.420;2022-11-21T16:18:04;31.67;;;17.17;;
72065;SDS011;59939;52.516;13.420;2022-11-21T16:21:09;30.97;;;15.73;;
72065;SDS011;59939;52.516;13.420;2022-11-21T16:24:15;40.33;;;20.50;;
72065;SDS011;59939;52.516;13.420;2022-11-21T16:27:22;37.10;;;19.17;;
72065;SDS011;59939;52.516;13.420;2022-11-21T16:30:26;37.10;;;19.07;;
72065;SDS011;59939;52.516;13.420;2022-11-21T16:33:31;35.70;;;18.67;;
72065;SDS011;59939;52.516;13.420;2022-11-21T16:36:37;40.87;;;20.80;;
72065;SDS011;59939;52.516;13.420;2022-11-21T16:39:41;36.50;;;19.07;;
72065;SDS011;59939;52.516;13.420;2022-11-21T16:42:45;37.20;;;20.40;;
72065;SDS011;59939;52.516;13.420;2022-11-21T16:45:49;38.43;;;19.70;;
72065;SDS011;59939;52.516;13.420;2022-11-21T16:48:59;39.83;;;20.40;;
72065;SDS011;59939;52.516;13.420;2022-11-21T16:52:04;36.77;;;19.27;;
72065;SDS011;59939;52.516;13.420;2022-11-21T16:55:08;41.37;;;22.20;;
72065;SDS011;59939;52.516;13.420;2022-11-21T16:58:19;43.17;;;23.17;;
72065;SDS011;59939;52.516;13.420;2022-11-21T17:01:25;41.07;;;22.13;;
72065;SDS011;59939;52.516;13.420;2022-11-21T17:04:29;44.30;;;22.23;;
72065;SDS011;59939;52.516;13.420;2022-11-21T17:07:33;36.17;;;20.57;;
72065;SDS011;59939;52.516;13.420;2022-11-21T17:10:45;43.57;;;25.60;;
72065;SDS011;59939;52.516;13.420;2022-11-21T17:13:50;44.30;;;24.07;;
72065;SDS011;59939;52.516;13.420;2022-11-21T17:16:54;40.77;;;24.23;;
72065;SDS011;59939;52.516;13.420;2022-11-21T17:19:59;42.73;;;24.50;;
72065;SDS011;59939;52.516;13.420;2022-11-21T17:23:04;43.27;;;23.93;;
72065;SDS011;59939;52.516;13.420;2022-11-21T17:26:10;44.30;;;24.40;;
72065;SDS011;59939;52.516;13.420;2022-11-21T17:29:16;42.60;;;24.33;;
72065;SDS011;59939;52.516;13.420;2022-11-21T17:32:20;47.23;;;25.60;;
72065;SDS011;59939;52.516;13.420;2022-11-21T17:35:25;44.83;;;25.43;;
72065;SDS011;59939;52.516;13.420;2022-11-21T17:38:33;45.07;;;26.60;;
72065;SDS011;59939;52.516;13.420;2022-11-21T17:41:37;44.03;;;24.53;;
72065;SDS011;59939;52.516;13.420;2022-11-21T17:44:42;44.00;;;25.80;;
72065;SDS011;59939;52.516;13.420;2022-11-21T17:47:46;49.63;;;24.80;;
72065;SDS011;59939;52.516;13.420;2022-11-21T17:54:22;46.90;;;27.33;;
72065;SDS011;59939;52.516;13.420;2022-11-21T17:57:26;40.03;;;22.83;;
72065;SDS011;59939;52.516;13.420;2022-11-21T18:00:30;45.93;;;26.73;;
72065;SDS011;59939;52.516;13.420;2022-11-21T18:03:34;44.90;;;27.47;;
72065;SDS011;59939;52.516;13.420;2022-11-21T18:06:39;46.50;;;27.37;;
72065;SDS011;59939;52.516;13.420;2022-11-21T18:09:43;39.97;;;27.70;;
72065;SDS011;59939;52.516;13.420;2022-11-21T18:12:46;44.03;;;24.97;;
72065;SDS011;59939;52.516;13.420;2022-11-21T18:15:55;49.90;;;28.00;;
72065;SDS011;59939;52.516;13.420;2022-11-21T18:19:02;52.77;;;30.77;;
72065;SDS011;59939;52.516;13.420;2022-11-21T18:22:16;40.20;;;25.90;;
72065;SDS011;59939;52.516;13.420;2022-11-21T18:25:19;47.33;;;27.87;;
72065;SDS011;59939;52.516;13.420;2022-11-21T18:28:25;39.83;;;23.40;;
72065;SDS011;59939;52.516;13.420;2022-11-21T18:31:32;45.70;;;27.23;;
72065;SDS011;59939;52.516;13.420;2022-11-21T18:34:37;46.37;;;28.77;;
72065;SDS011;59939;52.516;13.420;2022-11-21T18:37:43;49.60;;;27.70;;
72065;SDS011;59939;52.516;13.420;2022-11-21T18:40:56;47.07;;;26.40;;
72065;SDS011;59939;52.516;13.420;2022-11-21T18:44:05;47.43;;;26.50;;
72065;SDS011;59939;52.516;13.420;2022-11-21T18:47:10;47.90;;;26.97;;
72065;SDS011;59939;52.516;13.420;2022-11-21T18:50:22;38.50;;;23.30;;
72065;SDS011;59939;52.516;13.420;2022-11-21T18:53:27;48.07;;;26.87;;
72065;SDS011;59939;52.516;13.420;2022-11-21T18:56:30;45.57;;;26.67;;
72065;SDS011;59939;52.516;13.420;2022-11-21T18:59:35;47.87;;;26.40;;
72065;SDS011;59939;52.516;13.420;2022-11-21T19:02:38;48.70;;;27.67;;
72065;SDS011;59939;52.516;13.420;2022-11-21T19:05:43;50.57;;;26.33;;
72065;SDS011;59939;52.516;13.420;2022-11-21T19:08:47;49.07;;;28.27;;
72065;SDS011;59939;52.516;13.420;2022-11-21T19:11:56;48.07;;;27.60;;
72065;SDS011;59939;52.516;13.420;2022-11-21T19:15:07;49.03;;;27.83;;
72065;SDS011;59939;52.516;13.420;2022-11-21T19:18:12;45.63;;;23.07;;
72065;SDS011;59939;52.516;13.420;2022-11-21T19:21:16;34.73;;;21.07;;
72065;SDS011;59939;52.516;13.420;2022-11-21T19:24:23;38.90;;;21.00;;
72065;SDS011;59939;52.516;13.420;2022-11-21T19:27:26;46.23;;;26.50;;
72065;SDS011;59939;52.516;13.420;2022-11-21T19:30:30;41.10;;;24.17;;
72065;SDS011;59939;52.516;13.420;2022-11-21T19:33:35;41.20;;;24.83;;
72065;SDS011;59939;52.516;13.420;2022-11-21T19:36:41;35.83;;;21.87;;
72065;SDS011;59939;52.516;13.420;2022-11-21T19:39:46;45.63;;;24.10;;
72065;SDS011;59939;52.516;13.420;2022-11-21T19:42:52;40.50;;;22.27;;
72065;SDS011;59939;52.516;13.420;2022-11-21T19:46:00;36.33;;;20.63;;